Lamont, WA

10:26 AM PST on December 18, 2014 (GMT -0800)
RAWS ESCURE WA US | Change Station
CLOSE
Current Station
Personal Weather Station
Location: Benge, WA
Elevation: 1740 ft
Nearby Weather Stations

Elev 1740 ft 47.04 °N, 117.95 °W | Updated 45 minutes ago

Overcast
Overcast
35 °F
Feels Like 35 °F
N
1
Wind Variable Wind from ESE
Gusts 5.0 mph

Today
High -- | Low -- °F
--% Chance of Precip.
Yesterday
High -- | Low -- °F
Precip. -- in
7:33 AM 4:02 PM
Waning Crescent, 13% visible
Pressure 30.00 in
Visibility 0.5 miles
Clouds
Windchill 35 °F
Dew Point 35 °F
Humidity 100%
Rainfall 0.00 in
Snow Depth Not available.
UV Not available.
Pollen .10 out of 12
Air Quality Not available.
Flu Activity Not available.
SPECI KSKA 181818Z AUTO 28002KT 1/2SM R23/3500FT FG VV002 00/00 A3000 RMK AO2

More Conditions Fewer Conditions

Pressure 30.00 in
Visibility 0.5 miles
Clouds
Windchill 35 °F
Dew Point 35 °F
Humidity 100%
Rainfall 0.00 in
Snow Depth Not available.
UV Not available.
Pollen .10 out of 12
Air Quality Not available.
Flu Activity Not available.
SPECI KSKA 181818Z AUTO 28002KT 1/2SM R23/3500FT FG VV002 00/00 A3000 RMK AO2

More Conditions Fewer Conditions

10-Day Weather Forecast

Almanac

Astronomy

Dec. 18, 2014 Rise Set
Actual Time
Civil Twilight
Nautical Twilight
Astronomical Twilight
Moon
Length of Visible Light
Length of Day
Tomorrow will be .
, % of the Moon is Illuminated

Today's Extremes

State Highs State Lows

Community

WunderPhotos

Upload Photos

1,778,973 photos uploaded!

WunderBlogs® & News

Nearby

Air Quality

  Air Quality AQ Index Pollutant
Not available.

Snow Depth

Station Depth Elevation

Earthquake Activity

City Distance Mag. Time & Date
Minimum magnitude displayed is 2.5.

Coastal Water Temperatures

Place Temperature

Nearby Weather Stations